Time;durP1;ratioP1;P1;durP2;ratioP2;P2;SDS_P1;SDS_P2;PMS_P1;PMS_P2;Temp;Humidity;BMP_temperature;BMP_pressure;BME280_temperature;BME280_humidity;BME280_pressure;Samples;Min_cycle;Max_cycle;Signal;HPM_P1;HPM_P2
2021/06/07 00:01:39;;;;;;;100.37;46.00;;;;;;;23.10;53.92;101744.97;5086817;28;20453;-45
2021/06/07 00:04:07;;;;;;;111.87;49.40;;;;;;;23.09;54.10;101749.38;5085424;28;20490;-44
2021/06/07 00:06:34;;;;;;;102.77;49.50;;;;;;;23.12;54.20;101748.53;5081996;28;20452;-45
2021/06/07 00:09:04;;;;;;;113.87;48.20;;;;;;;22.79;54.78;101746.59;5084304;28;20482;-46
2021/06/07 00:11:31;;;;;;;102.37;49.23;;;;;;;22.98;54.23;101746.69;5086962;28;20487;-44
2021/06/07 00:14:01;;;;;;;97.60;49.77;;;;;;;22.92;54.52;101747.53;5084387;28;20543;-45
2021/06/07 00:16:29;;;;;;;123.13;50.93;;;;;;;22.99;54.39;101747.56;5093170;28;20460;-49
2021/06/07 00:18:56;;;;;;;114.73;50.90;;;;;;;23.08;54.12;101752.00;5089845;28;20479;-44
2021/06/07 00:21:24;;;;;;;115.43;48.50;;;;;;;23.02;54.01;101753.72;5076237;28;20453;-43
2021/06/07 00:23:53;;;;;;;107.90;48.63;;;;;;;23.02;54.08;101748.47;5074683;28;20480;-46
2021/06/07 00:26:21;;;;;;;112.73;50.40;;;;;;;22.75;55.35;101744.81;5075645;28;20455;-46
2021/06/07 00:28:48;;;;;;;109.93;51.43;;;;;;;23.11;54.67;101746.78;5074438;28;20481;-44
2021/06/07 00:31:16;;;;;;;106.03;49.07;;;;;;;23.28;53.94;101755.59;5075750;28;20487;-48
2021/06/07 00:33:43;;;;;;;106.50;51.97;;;;;;;23.31;53.66;101755.66;5074631;28;20493;-47
2021/06/07 00:36:11;;;;;;;102.63;51.50;;;;;;;23.35;53.65;101747.75;5075394;28;20894;-44
2021/06/07 00:38:39;;;;;;;94.30;48.00;;;;;;;23.23;53.54;101749.47;5074330;28;20482;-43
2021/06/07 00:41:08;;;;;;;105.63;51.67;;;;;;;23.03;54.26;101744.94;5075772;28;20456;-45
2021/06/07 00:43:36;;;;;;;100.40;47.50;;;;;;;23.24;53.54;101743.31;5074551;28;20490;-48
2021/06/07 00:46:04;;;;;;;91.73;48.10;;;;;;;23.03;54.54;101752.84;5075486;28;20463;-44
2021/06/07 00:48:31;;;;;;;92.97;47.90;;;;;;;23.14;53.62;101744.13;5074386;28;20469;-44
2021/06/07 00:51:01;;;;;;;95.70;45.47;;;;;;;22.82;54.77;101740.47;5075490;28;20566;-48
2021/06/07 00:53:28;;;;;;;87.53;45.80;;;;;;;22.92;54.41;101747.53;5074133;28;20493;-45
2021/06/07 00:55:57;;;;;;;91.17;48.17;;;;;;;23.00;54.50;101750.22;5075322;28;20463;-46
2021/06/07 00:58:27;;;;;;;98.60;48.80;;;;;;;22.77;54.83;101737.78;5074211;28;20490;-47
2021/06/07 01:00:56;;;;;;;108.57;52.70;;;;;;;23.22;53.72;101746.81;5075354;28;20464;-44
2021/06/07 01:03:24;;;;;;;104.77;51.40;;;;;;;23.18;54.36;101749.41;5074056;28;20983;-45
2021/06/07 01:05:52;;;;;;;98.20;48.97;;;;;;;23.38;52.98;101739.91;5075195;28;20459;-48
2021/06/07 01:08:20;;;;;;;98.30;47.63;;;;;;;23.03;54.31;101741.47;5074043;28;20475;-46
2021/06/07 01:10:48;;;;;;;104.37;50.00;;;;;;;23.05;53.86;101745.84;5075521;28;20455;-49
2021/06/07 01:13:15;;;;;;;95.23;50.20;;;;;;;22.69;54.97;101739.50;5073780;28;20574;-47
2021/06/07 01:15:43;;;;;;;92.93;49.77;;;;;;;23.05;54.25;101744.97;5074993;28;20551;-45
2021/06/07 01:18:12;;;;;;;102.27;50.67;;;;;;;23.16;53.91;101742.38;5073980;28;20484;-44
2021/06/07 01:20:40;;;;;;;104.07;50.93;;;;;;;23.11;53.86;101741.50;5075372;28;20490;-47
2021/06/07 01:23:08;;;;;;;90.07;50.23;;;;;;;22.76;54.47;101741.28;5066957;28;20935;-44
2021/06/07 01:25:38;;;;;;;98.53;48.60;;;;;;;22.86;54.66;101738.75;5055035;28;20467;-46
2021/06/07 01:28:06;;;;;;;120.67;53.17;;;;;;;23.07;54.05;101743.22;5053716;28;20480;-44
2021/06/07 01:30:37;;;;;;;126.27;56.03;;;;;;;23.33;53.47;101738.09;5055117;28;20918;-44
2021/06/07 01:33:05;;;;;;;113.17;54.30;;;;;;;23.17;53.83;101741.53;5053518;28;20508;-45
2021/06/07 01:35:33;;;;;;;113.87;54.03;;;;;;;23.23;53.83;101741.56;5054950;28;20456;-43
2021/06/07 01:38:00;;;;;;;119.47;54.83;;;;;;;23.39;53.66;101741.66;5053687;28;20485;-47
2021/06/07 01:40:31;;;;;;;111.23;50.57;;;;;;;23.10;54.20;101747.63;5069376;28;20779;-45
2021/06/07 01:42:59;;;;;;;116.17;52.30;;;;;;;23.50;52.99;101742.56;5073877;28;20489;-44
2021/06/07 01:45:29;;;;;;;106.87;51.63;;;;;;;23.12;53.61;101740.63;5074800;28;20462;-44
2021/06/07 01:47:57;;;;;;;114.97;53.47;;;;;;;23.21;53.66;101743.28;5073637;28;20493;-45
2021/06/07 01:50:24;;;;;;;124.23;55.20;;;;;;;22.77;54.82;101739.56;5075196;28;20460;-45
2021/06/07 01:52:51;;;;;;;134.47;54.17;;;;;;;22.45;55.98;101742.81;5073292;28;20481;-44
2021/06/07 01:55:20;;;;;;;128.27;55.73;;;;;;;22.43;55.95;101741.88;5074892;28;20772;-47
2021/06/07 01:57:50;;;;;;;122.57;54.87;;;;;;;23.01;54.95;101740.53;5073749;28;20483;-46
2021/06/07 02:00:23;;;;;;;108.60;52.10;;;;;;;22.86;55.01;101741.38;5074815;28;20487;-45
2021/06/07 02:02:50;;;;;;;119.27;53.83;;;;;;;22.62;55.72;101738.56;5073821;28;20486;-48
2021/06/07 02:05:20;;;;;;;121.07;54.97;;;;;;;22.68;55.35;101732.47;5074765;28;20459;-43
2021/06/07 02:07:48;;;;;;;130.97;55.27;;;;;;;22.66;55.48;101728.94;5073094;28;20484;-44
2021/06/07 02:10:16;;;;;;;118.53;56.40;;;;;;;22.89;54.66;101725.59;5074951;28;20482;-43
2021/06/07 02:12:43;;;;;;;135.30;57.60;;;;;;;22.48;55.87;101730.56;5073535;28;20493;-48
2021/06/07 02:15:12;;;;;;;114.20;53.03;;;;;;;22.43;55.67;101732.28;5074906;28;20465;-45
2021/06/07 02:17:40;;;;;;;110.27;54.20;;;;;;;22.69;55.63;101726.34;5072903;28;20478;-47
2021/06/07 02:20:11;;;;;;;116.50;55.70;;;;;;;22.86;54.87;101730.84;5077832;28;20470;-43
2021/06/07 02:22:39;;;;;;;107.87;52.30;;;;;;;22.95;54.63;101730.88;5077024;28;20488;-44
2021/06/07 02:25:07;;;;;;;126.50;55.00;;;;;;;22.30;56.25;101730.41;5078171;28;20814;-45
2021/06/07 02:27:34;;;;;;;108.03;53.00;;;;;;;22.34;56.08;101727.81;5076708;28;20506;-42
2021/06/07 02:30:04;;;;;;;112.33;53.27;;;;;;;22.21;57.28;101724.19;5078247;28;20476;-44
2021/06/07 02:32:32;;;;;;;135.87;55.43;;;;;;;22.32;56.51;101731.31;5076852;28;20479;-43
2021/06/07 02:34:59;;;;;;;131.33;57.37;;;;;;;22.32;56.48;101726.03;5078037;28;20888;-46
2021/06/07 02:37:26;;;;;;;130.50;56.80;;;;;;;22.63;55.53;101736.81;5076463;28;20490;-44
2021/06/07 02:39:53;;;;;;;140.63;56.87;;;;;;;22.93;54.74;101737.91;5077968;28;20474;-43
2021/06/07 02:42:21;;;;;;;132.97;57.43;;;;;;;22.45;56.05;101733.16;5076973;28;20484;-42
2021/06/07 02:44:48;;;;;;;138.50;56.20;;;;;;;22.56;55.95;101737.66;5078200;28;20469;-45
2021/06/07 02:47:15;;;;;;;139.33;57.17;;;;;;;22.31;56.72;101740.06;5076473;28;20489;-46
2021/06/07 02:49:44;;;;;;;136.50;56.70;;;;;;;22.34;56.53;101737.44;5077792;28;20477;-46
2021/06/07 02:52:11;;;;;;;144.07;54.40;;;;;;;21.85;57.78;101744.03;5076385;28;20941;-46
2021/06/07 02:54:38;;;;;;;144.90;57.20;;;;;;;22.12;57.34;101742.53;5077960;28;20462;-44
2021/06/07 02:57:06;;;;;;;144.23;57.13;;;;;;;22.39;56.90;101747.13;5076348;28;20472;-45
2021/06/07 02:59:33;;;;;;;123.03;54.90;;;;;;;22.21;56.89;101749.63;5077700;28;20476;-45
2021/06/07 03:02:00;;;;;;;137.23;55.77;;;;;;;22.01;57.46;101747.69;5076890;28;20883;-43
2021/06/07 03:04:28;;;;;;;150.47;57.70;;;;;;;21.98;57.83;101751.16;5077465;28;20474;-44
2021/06/07 03:06:56;;;;;;;156.47;59.87;;;;;;;22.72;55.88;101744.75;5076128;28;20459;-48
2021/06/07 03:09:23;;;;;;;147.67;60.03;;;;;;;22.66;55.92;101740.34;5077164;28;20921;-45
2021/06/07 03:11:50;;;;;;;145.23;59.70;;;;;;;22.60;55.86;101744.72;5076246;28;20470;-43
2021/06/07 03:14:18;;;;;;;135.40;56.23;;;;;;;22.43;56.62;101742.78;5077343;28;20540;-46
2021/06/07 03:16:45;;;;;;;155.93;61.43;;;;;;;22.72;55.49;101744.75;5076054;28;20476;-50
2021/06/07 03:19:12;;;;;;;151.33;57.20;;;;;;;22.37;56.22;101740.97;5077049;28;20482;-46
2021/06/07 03:21:39;;;;;;;144.97;57.23;;;;;;;22.50;56.07;101734.06;5077535;28;20461;-44
2021/06/07 03:24:08;;;;;;;154.43;58.53;;;;;;;22.48;56.09;101735.81;5075444;28;20479;-50
2021/06/07 03:26:35;;;;;;;145.40;56.93;;;;;;;22.61;55.94;101734.19;5077097;28;20458;-44
2021/06/07 03:29:02;;;;;;;136.67;57.37;;;;;;;22.85;55.36;101731.69;5075589;28;20483;-44
2021/06/07 03:31:29;;;;;;;140.37;56.90;;;;;;;22.57;55.69;101736.78;5075881;28;20473;-45
2021/06/07 03:33:56;;;;;;;139.23;57.93;;;;;;;22.52;55.83;101736.75;5075357;28;20536;-45
2021/06/07 03:36:23;;;;;;;137.57;57.10;;;;;;;22.44;56.49;101734.03;5076663;28;20463;-44
2021/06/07 03:38:50;;;;;;;164.93;58.90;;;;;;;22.42;56.16;101729.63;5075672;28;20485;-46
2021/06/07 03:41:19;;;;;;;150.43;59.30;;;;;;;22.66;55.62;101726.31;5076860;28;20758;-43
2021/06/07 03:43:46;;;;;;;148.40;59.43;;;;;;;22.72;55.02;101728.97;5075336;28;20953;-45
2021/06/07 03:46:13;;;;;;;146.17;58.77;;;;;;;22.56;55.68;101722.75;5076711;28;20459;-45
2021/06/07 03:48:40;;;;;;;149.50;56.93;;;;;;;22.58;55.79;101726.28;5075389;28;20939;-44
2021/06/07 03:51:07;;;;;;;130.10;54.47;;;;;;;22.15;57.12;101732.03;5076858;28;20458;-43
2021/06/07 03:53:34;;;;;;;141.53;56.33;;;;;;;22.63;55.94;101724.56;5075327;28;20482;-44
2021/06/07 03:56:02;;;;;;;130.73;54.60;;;;;;;22.53;56.46;101728.00;5076363;28;20455;-44
2021/06/07 03:58:31;;;;;;;127.57;55.93;;;;;;;22.34;56.53;101732.19;5075250;28;20485;-44
2021/06/07 04:00:58;;;;;;;125.00;54.10;;;;;;;22.58;55.94;101725.38;5076373;28;20463;-43
2021/06/07 04:03:25;;;;;;;137.70;54.50;;;;;;;22.47;56.25;101730.53;5075576;28;20485;-45
2021/06/07 04:05:52;;;;;;;139.90;56.20;;;;;;;22.64;56.00;101730.69;5076264;28;20486;-45
2021/06/07 04:08:20;;;;;;;143.70;56.23;;;;;;;22.40;56.14;101729.59;5074973;28;20478;-43
2021/06/07 04:10:47;;;;;;;150.67;58.90;;;;;;;22.35;56.82;101734.84;5076321;28;20458;-45
2021/06/07 04:13:14;;;;;;;153.47;58.70;;;;;;;22.34;56.48;101743.59;5074881;28;21008;-46
2021/06/07 04:15:42;;;;;;;145.27;55.77;;;;;;;22.31;57.05;101742.69;5075837;28;20462;-45
2021/06/07 04:18:10;;;;;;;165.00;60.07;;;;;;;22.55;56.49;101738.53;5074643;28;20521;-44
2021/06/07 04:20:37;;;;;;;167.27;59.90;;;;;;;22.26;56.83;101743.50;5076399;28;20463;-44
2021/06/07 04:23:04;;;;;;;149.80;55.50;;;;;;;22.41;57.04;101744.53;5074731;28;20505;-43
2021/06/07 04:25:32;;;;;;;165.50;59.23;;;;;;;22.49;57.09;101742.84;5075636;28;20469;-44
2021/06/07 04:28:00;;;;;;;152.60;58.10;;;;;;;22.39;56.81;101748.88;5074540;28;20482;-46
2021/06/07 04:30:29;;;;;;;164.47;58.20;;;;;;;22.27;57.39;101747.03;5076162;28;20480;-47
2021/06/07 04:32:59;;;;;;;155.83;56.90;;;;;;;22.04;57.63;101744.22;5074471;28;20512;-46
2021/06/07 04:35:27;;;;;;;153.67;57.80;;;;;;;22.36;57.25;101744.47;5075557;28;20489;-43
2021/06/07 04:37:54;;;;;;;134.70;53.10;;;;;;;22.41;57.14;101752.41;5074634;28;20501;-45
2021/06/07 04:40:24;;;;;;;144.50;55.20;;;;;;;22.44;56.88;101744.53;5075721;28;20451;-46
2021/06/07 04:42:52;;;;;;;143.60;56.53;;;;;;;22.37;56.90;101746.22;5074081;28;20487;-45
2021/06/07 04:45:20;;;;;;;134.13;57.70;;;;;;;22.86;55.49;101746.63;5075624;28;20446;-45
2021/06/07 04:47:48;;;;;;;140.23;58.70;;;;;;;22.99;55.58;101744.94;5074730;28;20474;-43
2021/06/07 04:50:18;;;;;;;139.47;57.10;;;;;;;23.39;54.24;101741.66;5075681;28;20780;-45
2021/06/07 04:52:58;;;;;;;170.30;69.70;;;;;;;23.08;55.49;101741.47;5074508;28;20488;-44
2021/06/07 04:55:32;;;;;;;149.67;55.43;;;;;;;22.82;55.51;101740.47;5075146;28;20461;-43
2021/06/07 04:58:00;;;;;;;148.50;61.10;;;;;;;22.52;57.16;101755.16;5074164;28;20489;-44
2021/06/07 05:00:28;;;;;;;134.93;55.23;;;;;;;22.42;56.97;101751.53;5075675;28;20860;-45
2021/06/07 05:02:55;;;;;;;118.27;53.20;;;;;;;22.35;56.95;101753.22;5074408;28;20471;-43
2021/06/07 05:05:24;;;;;;;117.27;51.40;;;;;;;22.68;55.97;101747.38;5086538;28;20464;-45
2021/06/07 05:07:51;;;;;;;109.30;50.37;;;;;;;22.76;55.94;101743.06;5094346;28;20942;-44
2021/06/07 05:10:18;;;;;;;127.60;51.87;;;;;;;22.58;56.48;101746.44;5095591;28;20485;-44
2021/06/07 05:12:46;;;;;;;119.40;52.07;;;;;;;22.41;56.77;101739.28;5094368;28;20481;-44
2021/06/07 05:15:14;;;;;;;108.50;50.70;;;;;;;23.33;55.10;101743.38;5095647;28;20461;-44
2021/06/07 05:17:41;;;;;;;114.47;48.60;;;;;;;23.39;53.65;101744.28;5094048;28;20485;-43
2021/06/07 05:20:11;;;;;;;110.37;50.30;;;;;;;23.25;54.51;101747.72;5095685;28;20481;-45
2021/06/07 05:22:40;;;;;;;104.67;48.90;;;;;;;23.15;54.68;101749.41;5094297;28;20479;-46
2021/06/07 05:25:08;;;;;;;136.37;63.90;;;;;;;23.35;54.61;101739.88;5095538;28;20458;-46
2021/06/07 05:27:35;;;;;;;134.80;63.87;;;;;;;23.68;53.57;101751.41;5093916;28;20486;-45
2021/06/07 05:30:04;;;;;;;109.97;47.97;;;;;;;23.08;54.92;101754.63;5095172;28;20555;-44
2021/06/07 05:32:31;;;;;;;110.37;48.33;;;;;;;23.17;54.88;101752.06;5093815;28;20944;-45
2021/06/07 05:34:58;;;;;;;128.20;52.90;;;;;;;22.84;55.82;101751.88;5095018;28;20513;-44
2021/06/07 05:37:28;;;;;;;124.87;52.33;;;;;;;22.86;55.82;101759.78;5078528;28;20487;-43
2021/06/07 05:39:57;;;;;;;125.10;52.67;;;;;;;23.45;54.29;101757.47;5074836;28;21007;-46
2021/06/07 05:42:24;;;;;;;117.13;51.00;;;;;;;23.44;54.23;101756.56;5073679;28;20483;-44
2021/06/07 05:44:51;;;;;;;120.40;50.70;;;;;;;23.44;54.43;101760.97;5074826;28;20460;-44
2021/06/07 05:47:19;;;;;;;121.43;53.23;;;;;;;23.44;53.95;101767.09;5073182;28;20478;-44
2021/06/07 05:49:46;;;;;;;147.37;54.13;;;;;;;23.35;54.67;101767.09;5074814;28;20931;-44
2021/06/07 05:52:13;;;;;;;126.43;53.60;;;;;;;22.88;55.93;101763.28;5073488;28;20947;-44
2021/06/07 05:54:41;;;;;;;136.37;55.43;;;;;;;23.24;54.69;101761.75;5077212;28;20482;-47
2021/06/07 05:57:10;;;;;;;124.40;53.20;;;;;;;23.01;55.34;101759.84;5077017;28;20477;-45
2021/06/07 05:59:38;;;;;;;104.50;47.87;;;;;;;22.78;56.09;101760.59;5078416;28;20479;-45
2021/06/07 06:02:05;;;;;;;121.30;52.17;;;;;;;22.73;56.40;101757.06;5077186;28;20471;-44
2021/06/07 06:04:33;;;;;;;107.87;49.53;;;;;;;22.65;56.88;101764.00;5078662;28;20457;-44
2021/06/07 06:07:00;;;;;;;134.33;54.67;;;;;;;23.17;55.47;101762.59;5077054;28;20508;-45
2021/06/07 06:09:28;;;;;;;124.37;50.80;;;;;;;23.50;54.22;101763.63;5078493;28;20474;-46
2021/06/07 06:11:55;;;;;;;138.50;59.50;;;;;;;23.41;54.74;101769.75;5077148;28;20459;-45
2021/06/07 06:14:23;;;;;;;130.27;53.90;;;;;;;23.13;55.66;101766.94;5078153;28;20498;-48
2021/06/07 06:16:51;;;;;;;118.50;52.13;;;;;;;23.10;55.81;101772.19;5083147;28;20465;-46
2021/06/07 06:19:18;;;;;;;124.20;54.53;;;;;;;22.85;56.19;101765.88;5080566;28;20927;-47
2021/06/07 06:21:45;;;;;;;112.87;52.53;;;;;;;22.76;56.92;101772.00;5077128;28;20455;-46
2021/06/07 06:24:13;;;;;;;133.63;58.17;;;;;;;23.05;56.40;101780.06;5077927;28;20958;-43
2021/06/07 06:26:40;;;;;;;127.70;54.13;;;;;;;23.78;54.22;101773.38;5078015;28;20463;-46
2021/06/07 06:29:08;;;;;;;110.30;51.93;;;;;;;23.80;53.46;101772.50;5076765;28;20784;-46
2021/06/07 06:31:36;;;;;;;197.00;72.03;;;;;;;24.03;52.78;101773.44;5077975;28;20463;-45
2021/06/07 06:34:04;;;;;;;129.70;52.13;;;;;;;23.79;53.42;101776.00;5076761;28;20532;-46
2021/06/07 06:36:31;;;;;;;110.37;51.40;;;;;;;23.26;54.77;101778.41;5075767;28;20774;-43
2021/06/07 06:39:01;;;;;;;112.93;52.17;;;;;;;23.21;55.17;101772.25;5076514;28;20487;-45
2021/06/07 06:41:30;;;;;;;141.63;58.37;;;;;;;23.31;54.81;101776.72;5057796;28;20467;-48
2021/06/07 06:43:57;;;;;;;120.93;52.90;;;;;;;22.84;56.07;101766.75;5073437;28;20931;-46
2021/06/07 06:46:24;;;;;;;107.77;49.60;;;;;;;23.19;55.09;101777.50;5077443;28;20473;-47
2021/06/07 06:48:54;;;;;;;117.50;52.37;;;;;;;23.18;55.97;101770.47;5075540;28;20479;-44
2021/06/07 06:51:22;;;;;;;116.93;51.90;;;;;;;23.07;55.30;101777.41;5077425;28;20480;-43
2021/06/07 06:53:49;;;;;;;115.77;52.63;;;;;;;23.44;55.21;101782.03;5075715;28;20522;-46
2021/06/07 06:56:16;;;;;;;115.50;52.67;;;;;;;22.99;55.78;101780.03;5076883;28;20473;-47
2021/06/07 06:58:43;;;;;;;115.23;52.53;;;;;;;23.18;55.64;101780.13;5076494;28;20479;-47
2021/06/07 07:01:13;;;;;;;318.07;111.33;;;;;;;23.75;54.21;101792.69;5077645;28;20822;-46
2021/06/07 07:03:40;;;;;;;122.13;54.47;;;;;;;23.83;53.48;101793.59;5089847;28;20522;-44
2021/06/07 07:06:09;;;;;;;137.30;56.53;;;;;;;24.09;52.86;101798.06;5096871;28;20460;-44
2021/06/07 07:08:36;;;;;;;135.43;57.07;;;;;;;24.00;52.93;101792.75;5096303;28;20478;-45
2021/06/07 07:11:03;;;;;;;105.73;50.27;;;;;;;23.66;53.74;101806.72;5079054;28;20458;-46
2021/06/07 07:13:30;;;;;;;122.90;54.30;;;;;;;23.33;55.10;101806.56;5074800;28;20470;-44
2021/06/07 07:15:57;;;;;;;142.00;62.70;;;;;;;23.57;54.46;101812.81;5076909;28;20469;-44
2021/06/07 07:18:24;;;;;;;229.80;80.87;;;;;;;23.91;53.25;101811.16;5075947;28;20487;-45
2021/06/07 07:20:51;;;;;;;110.97;52.03;;;;;;;23.45;54.75;101811.03;5076996;28;20482;-44
2021/06/07 07:23:20;;;;;;;155.97;60.33;;;;;;;23.93;53.33;101812.94;5075553;28;20491;-44
2021/06/07 07:25:48;;;;;;;121.93;55.37;;;;;;;23.87;53.31;101818.19;5076634;28;20486;-46
2021/06/07 07:28:15;;;;;;;114.10;51.53;;;;;;;24.13;52.66;101809.47;5075636;28;20486;-51
2021/06/07 07:30:44;;;;;;;107.23;50.10;;;;;;;23.72;53.73;101814.63;5076395;28;21039;-44
2021/06/07 07:33:35;;;;;;;105.77;51.00;;;;;;;23.48;54.55;101815.38;5075445;28;20458;-47
2021/06/07 07:36:03;;;;;;;171.57;76.20;;;;;;;23.70;54.30;101818.13;5076467;28;20479;-44
2021/06/07 07:38:31;;;;;;;134.80;60.50;;;;;;;23.82;53.55;101820.81;5075744;28;20470;-49
2021/06/07 07:40:59;;;;;;;125.87;56.60;;;;;;;24.03;52.95;101811.19;5076390;28;20496;-43
2021/06/07 07:43:26;;;;;;;96.17;50.00;;;;;;;24.00;52.70;101824.38;5075315;28;20457;-44
2021/06/07 07:45:53;;;;;;;98.37;52.17;;;;;;;23.73;53.82;101815.50;5076211;28;20493;-46
2021/06/07 07:48:20;;;;;;;99.40;50.80;;;;;;;24.17;52.55;101818.28;5075198;28;20479;-46
2021/06/07 07:50:48;;;;;;;101.73;50.10;;;;;;;23.79;53.92;101820.78;5076459;28;20494;-46
2021/06/07 07:53:15;;;;;;;97.50;49.70;;;;;;;23.44;54.70;101817.13;5075493;28;20484;-48
2021/06/07 07:55:44;;;;;;;142.80;61.93;;;;;;;23.97;53.32;101819.09;5075844;28;20502;-44
2021/06/07 07:58:11;;;;;;;116.90;52.20;;;;;;;24.04;52.77;101812.09;5076276;28;20469;-44
2021/06/07 08:00:40;;;;;;;89.90;47.57;;;;;;;24.20;52.85;101813.88;5074699;28;20492;-47
2021/06/07 08:03:08;;;;;;;90.03;47.00;;;;;;;24.40;52.92;101818.28;5091841;28;20477;-49
2021/06/07 08:05:35;;;;;;;98.13;49.57;;;;;;;24.15;52.86;101813.03;5094725;28;20476;-45
2021/06/07 08:08:03;;;;;;;322.07;111.97;;;;;;;24.55;51.56;101804.22;5096455;28;20457;-43
2021/06/07 08:10:30;;;;;;;93.60;46.90;;;;;;;24.54;52.01;101811.28;5094088;28;20483;-45
2021/06/07 08:13:00;;;;;;;82.53;46.93;;;;;;;24.76;51.44;101807.75;5076110;28;20451;-45
2021/06/07 08:15:29;;;;;;;78.97;46.00;;;;;;;24.30;52.50;101814.78;5074360;28;20897;-48
2021/06/07 08:17:56;;;;;;;83.10;46.97;;;;;;;24.33;52.64;101811.25;5094698;28;20469;-47
2021/06/07 08:20:23;;;;;;;87.93;46.33;;;;;;;24.32;52.91;101813.03;5094777;28;20479;-45
2021/06/07 08:22:54;;;;;;;83.50;45.70;;;;;;;24.24;52.74;101812.13;5096693;28;20464;-43
2021/06/07 08:25:23;;;;;;;82.60;44.70;;;;;;;23.91;53.91;101805.88;5094948;28;20483;-43
2021/06/07 08:27:51;;;;;;;81.63;45.53;;;;;;;23.99;53.72;101812.94;5083271;28;20469;-49
2021/06/07 08:30:21;;;;;;;89.63;47.10;;;;;;;24.53;52.27;101813.91;5094721;28;20485;-44
2021/06/07 08:32:49;;;;;;;86.50;47.47;;;;;;;24.74;51.53;101804.22;5096079;28;20810;-45
2021/06/07 08:35:16;;;;;;;96.10;50.37;;;;;;;25.04;51.29;101810.38;5089711;28;20859;-48
2021/06/07 08:37:43;;;;;;;99.83;53.30;;;;;;;24.72;51.48;101811.28;5075220;28;20446;-48
2021/06/07 08:40:13;;;;;;;87.13;46.73;;;;;;;24.85;51.77;101805.13;5074310;28;20482;-47
2021/06/07 08:42:42;;;;;;;83.00;45.57;;;;;;;24.85;51.47;101807.78;5075629;28;20455;-47
2021/06/07 08:45:16;;;;;;;80.47;44.73;;;;;;;24.45;52.99;101805.13;5074368;28;20479;-46
2021/06/07 08:47:46;;;;;;;97.97;53.97;;;;;;;24.65;52.54;101807.75;5075415;28;20453;-46
2021/06/07 08:50:14;;;;;;;94.10;51.20;;;;;;;24.84;51.52;101803.38;5074143;28;20475;-48
2021/06/07 08:52:43;;;;;;;76.17;41.90;;;;;;;24.37;53.03;101813.94;5075262;28;20468;-44
2021/06/07 08:55:12;;;;;;;76.57;43.23;;;;;;;24.66;51.59;101804.25;5085652;28;20481;-48
2021/06/07 08:57:40;;;;;;;76.47;43.10;;;;;;;24.71;51.11;101807.75;5095340;28;20488;-48
2021/06/07 09:00:09;;;;;;;84.23;45.13;;;;;;;24.74;51.70;101804.22;5093277;28;20554;-45
2021/06/07 09:02:41;;;;;;;85.27;45.93;;;;;;;24.97;50.75;101808.63;5094344;28;20490;-44
2021/06/07 09:05:10;;;;;;;89.83;46.83;;;;;;;24.97;50.62;101803.34;5074255;28;20483;-47
2021/06/07 09:07:54;;;;;;;76.10;43.77;;;;;;;25.41;49.78;101804.97;5074984;28;20466;-45
2021/06/07 09:10:21;;;;;;;74.63;42.40;;;;;;;24.86;50.61;101806.88;5074011;28;20473;-47
2021/06/07 09:12:53;;;;;;;72.10;41.83;;;;;;;25.32;49.53;101805.00;5075293;28;20460;-43
2021/06/07 09:15:25;;;;;;;70.80;43.13;;;;;;;24.95;50.15;101811.28;5075163;28;20484;-46
2021/06/07 09:17:52;;;;;;;72.80;42.20;;;;;;;25.10;50.11;101810.38;5074945;28;20491;-45
2021/06/07 09:20:23;;;;;;;138.67;76.10;;;;;;;25.07;50.50;101807.75;5074063;28;20485;-46
2021/06/07 09:22:51;;;;;;;72.17;41.73;;;;;;;25.04;50.69;101815.66;5075162;28;20461;-45
2021/06/07 09:25:20;;;;;;;74.23;43.70;;;;;;;25.32;49.86;101805.00;5074159;28;20484;-44
2021/06/07 09:28:04;;;;;;;75.03;43.03;;;;;;;25.53;49.52;101808.50;5076293;28;20467;-44
2021/06/07 09:30:33;;;;;;;62.70;38.33;;;;;;;25.80;48.95;101812.78;5086794;28;20472;-45
2021/06/07 09:33:34;;;;;;;76.60;42.97;;;;;;;25.70;49.11;101803.13;5099673;28;20733;-49
2021/06/07 09:36:18;;;;;;;65.00;39.87;;;;;;;25.16;50.29;101804.19;5082534;28;20472;-44
2021/06/07 09:39:08;;;;;;;68.80;39.90;;;;;;;25.17;50.56;101803.31;5057681;28;20480;-47
2021/06/07 09:41:53;;;;;;;62.40;38.67;;;;;;;25.66;48.93;101806.66;5059006;28;20777;-47
2021/06/07 09:44:28;;;;;;;63.83;38.33;;;;;;;25.34;50.00;101803.25;5077121;28;20780;-43
2021/06/07 09:47:14;;;;;;;79.63;43.50;;;;;;;25.62;49.23;101803.16;5117925;28;20464;-45
2021/06/07 09:49:43;;;;;;;107.93;50.50;;;;;;;26.12;47.94;101808.16;5118084;28;20866;-48
2021/06/07 09:52:16;;;;;;;148.57;64.17;;;;;;;26.46;47.30;101807.97;5105922;28;20477;-44
2021/06/07 09:54:43;;;;;;;67.13;39.20;;;;;;;25.77;48.42;101806.63;5097595;28;20485;-44
2021/06/07 09:57:11;;;;;;;109.87;51.13;;;;;;;26.25;47.40;101809.84;5098849;28;20488;-46
2021/06/07 09:59:40;;;;;;;62.47;37.50;;;;;;;26.55;47.01;101799.94;5098075;28;20477;-47
2021/06/07 10:02:18;;;;;;;66.43;40.70;;;;;;;26.42;46.05;101808.84;5098789;28;20461;-47
2021/06/07 10:04:55;;;;;;;65.03;38.50;;;;;;;26.43;47.09;101805.31;5097831;28;20836;-43
2021/06/07 10:07:24;;;;;;;69.80;40.73;;;;;;;26.22;46.97;101808.97;5098489;28;20457;-45
2021/06/07 10:10:11;;;;;;;98.47;45.60;;;;;;;26.25;46.94;101807.22;5097411;28;20481;-46
2021/06/07 10:12:39;;;;;;;57.23;35.00;;;;;;;26.14;48.01;101811.66;5098829;28;20464;-44
2021/06/07 10:15:08;;;;;;;77.60;42.50;;;;;;;26.58;46.62;101804.31;5097812;28;20541;-45
2021/06/07 10:17:35;;;;;;;69.63;40.00;;;;;;;26.79;46.38;101805.88;5098016;28;20472;-46
2021/06/07 10:22:51;;;;;;;58.97;36.63;;;;;;;26.88;45.71;101811.97;5098234;28;20476;-46
2021/06/07 10:25:18;;;;;;;65.17;38.57;;;;;;;25.99;48.32;101816.16;5097254;28;20472;-46
2021/06/07 10:27:45;;;;;;;61.30;36.83;;;;;;;26.39;47.79;101812.41;5098110;28;20458;-46
2021/06/07 10:30:21;;;;;;;55.07;35.23;;;;;;;26.74;46.86;101806.81;5097550;28;20567;-45
2021/06/07 10:32:48;;;;;;;61.33;38.47;;;;;;;26.64;47.29;101806.00;5099552;28;20876;-49
2021/06/07 10:35:30;;;;;;;59.43;36.80;;;;;;;27.50;45.71;101803.34;5100495;28;20523;-45
2021/06/07 10:38:09;;;;;;;53.63;32.80;;;;;;;27.46;45.83;101802.53;5098172;28;20469;-45
2021/06/07 10:40:38;;;;;;;52.70;34.63;;;;;;;27.27;45.78;101806.31;5103342;28;20460;-47
2021/06/07 10:43:07;;;;;;;54.00;32.67;;;;;;;27.34;45.93;101803.53;5117485;28;20452;-44
2021/06/07 10:45:37;;;;;;;51.30;31.90;;;;;;;26.94;47.37;101807.53;5096755;28;20469;-47
2021/06/07 10:48:06;;;;;;;79.67;42.17;;;;;;;27.22;45.24;101807.22;5097857;28;20450;-44
2021/06/07 10:50:35;;;;;;;47.83;30.70;;;;;;;27.57;44.39;101806.81;5096904;28;20477;-46
2021/06/07 10:53:06;;;;;;;53.00;32.20;;;;;;;27.30;44.86;101801.84;5098298;28;20491;-43
2021/06/07 10:55:35;;;;;;;58.53;34.77;;;;;;;27.74;43.82;101803.97;5096367;28;20489;-44
2021/06/07 10:58:03;;;;;;;58.83;34.07;;;;;;;27.86;43.44;101806.44;5097705;28;20458;-47
2021/06/07 11:00:36;;;;;;;56.53;35.03;;;;;;;27.45;44.97;101799.88;5096873;28;20474;-44
2021/06/07 11:03:14;;;;;;;51.50;29.87;;;;;;;26.73;44.51;101799.75;5097893;28;20484;-47
2021/06/07 11:05:42;;;;;;;69.10;39.50;;;;;;;27.29;44.04;101797.44;5096955;28;21441;-43
2021/06/07 11:08:12;;;;;;;63.33;35.33;;;;;;;27.44;42.51;101803.44;5108176;28;20469;-46
2021/06/07 11:10:40;;;;;;;65.77;33.17;;;;;;;27.74;41.51;101801.31;5116723;28;20476;-44
2021/06/07 11:13:09;;;;;;;49.33;28.87;;;;;;;27.20;42.30;101801.06;5118048;28;20464;-45
2021/06/07 11:15:40;;;;;;;63.77;35.17;;;;;;;27.00;42.61;101809.22;5116922;28;20481;-46